sensor_id;sensor_type;location;lat;lon;timestamp;temperature;humidity
39099;DHT22;24844;52.380;7.018;2022-09-01T00:00:45;15.60;99.90
39099;DHT22;24844;52.380;7.018;2022-09-01T00:03:18;15.60;99.90
39099;DHT22;24844;52.380;7.018;2022-09-01T00:05:45;15.50;99.90
39099;DHT22;24844;52.380;7.018;2022-09-01T00:08:14;15.50;99.90
39099;DHT22;24844;52.380;7.018;2022-09-01T00:10:40;15.40;99.90
39099;DHT22;24844;52.380;7.018;2022-09-01T00:13:06;15.40;99.90
39099;DHT22;24844;52.380;7.018;2022-09-01T00:15:34;15.30;99.90
39099;DHT22;24844;52.380;7.018;2022-09-01T00:18:00;15.40;99.90
39099;DHT22;24844;52.380;7.018;2022-09-01T00:20:26;15.30;99.90
39099;DHT22;24844;52.380;7.018;2022-09-01T00:22:52;15.20;99.90
39099;DHT22;24844;52.380;7.018;2022-09-01T00:25:18;15.20;99.90
39099;DHT22;24844;52.380;7.018;2022-09-01T00:27:45;15.20;99.90
39099;DHT22;24844;52.380;7.018;2022-09-01T00:30:11;15.10;99.90
39099;DHT22;24844;52.380;7.018;2022-09-01T00:32:37;15.20;99.90
39099;DHT22;24844;52.380;7.018;2022-09-01T00:35:03;15.20;99.90
39099;DHT22;24844;52.380;7.018;2022-09-01T00:37:29;15.10;99.90
39099;DHT22;24844;52.380;7.018;2022-09-01T00:39:54;15.10;99.90
39099;DHT22;24844;52.380;7.018;2022-09-01T00:42:20;14.90;99.90
39099;DHT22;24844;52.380;7.018;2022-09-01T00:44:46;14.90;99.90
39099;DHT22;24844;52.380;7.018;2022-09-01T00:47:12;14.90;99.90
39099;DHT22;24844;52.380;7.018;2022-09-01T00:49:40;14.90;99.90
39099;DHT22;24844;52.380;7.018;2022-09-01T00:52:28;14.90;99.90
39099;DHT22;24844;52.380;7.018;2022-09-01T00:54:57;14.80;99.90
39099;DHT22;24844;52.380;7.018;2022-09-01T00:57:24;14.80;99.90
39099;DHT22;24844;52.380;7.018;2022-09-01T01:00:06;14.60;99.90
39099;DHT22;24844;52.380;7.018;2022-09-01T01:02:32;14.70;99.90
39099;DHT22;24844;52.380;7.018;2022-09-01T01:04:58;14.50;99.90
39099;DHT22;24844;52.380;7.018;2022-09-01T01:07:25;14.60;99.90
39099;DHT22;24844;52.380;7.018;2022-09-01T01:09:52;14.60;99.90
39099;DHT22;24844;52.380;7.018;2022-09-01T01:12:19;14.50;99.90
39099;DHT22;24844;52.380;7.018;2022-09-01T01:14:46;14.50;99.90
39099;DHT22;24844;52.380;7.018;2022-09-01T01:17:15;14.50;99.90
39099;DHT22;24844;52.380;7.018;2022-09-01T01:19:54;14.30;99.90
39099;DHT22;24844;52.380;7.018;2022-09-01T01:22:56;14.40;99.90
39099;DHT22;24844;52.380;7.018;2022-09-01T01:30:44;14.30;99.90
39099;DHT22;24844;52.380;7.018;2022-09-01T01:33:10;14.30;99.90
39099;DHT22;24844;52.380;7.018;2022-09-01T01:35:36;14.40;99.90
39099;DHT22;24844;52.380;7.018;2022-09-01T01:38:03;14.30;99.90
39099;DHT22;24844;52.380;7.018;2022-09-01T01:40:32;14.30;99.90
39099;DHT22;24844;52.380;7.018;2022-09-01T01:42:58;14.20;99.90
39099;DHT22;24844;52.380;7.018;2022-09-01T01:45:26;14.20;99.90
39099;DHT22;24844;52.380;7.018;2022-09-01T01:47:53;14.30;99.90
39099;DHT22;24844;52.380;7.018;2022-09-01T01:50:20;14.30;99.90
39099;DHT22;24844;52.380;7.018;2022-09-01T01:52:46;14.20;99.90
39099;DHT22;24844;52.380;7.018;2022-09-01T01:55:12;14.20;99.90
39099;DHT22;24844;52.380;7.018;2022-09-01T01:57:41;14.10;99.90
39099;DHT22;24844;52.380;7.018;2022-09-01T02:00:18;14.20;99.90
39099;DHT22;24844;52.380;7.018;2022-09-01T02:02:46;14.20;99.90
39099;DHT22;24844;52.380;7.018;2022-09-01T02:05:29;14.10;99.90
39099;DHT22;24844;52.380;7.018;2022-09-01T02:07:59;14.10;99.90
39099;DHT22;24844;52.380;7.018;2022-09-01T02:10:30;14.10;99.90
39099;DHT22;24844;52.380;7.018;2022-09-01T02:12:59;14.20;99.90
39099;DHT22;24844;52.380;7.018;2022-09-01T02:15:40;14.20;99.90
39099;DHT22;24844;52.380;7.018;2022-09-01T02:18:18;14.20;99.90
39099;DHT22;24844;52.380;7.018;2022-09-01T02:20:46;14.20;99.90
39099;DHT22;24844;52.380;7.018;2022-09-01T02:23:14;14.00;99.90
39099;DHT22;24844;52.380;7.018;2022-09-01T02:25:43;14.00;99.90
39099;DHT22;24844;52.380;7.018;2022-09-01T02:28:13;13.90;99.90
39099;DHT22;24844;52.380;7.018;2022-09-01T02:30:50;13.90;99.90
39099;DHT22;24844;52.380;7.018;2022-09-01T02:33:20;13.90;99.90
39099;DHT22;24844;52.380;7.018;2022-09-01T02:35:51;14.00;99.90
39099;DHT22;24844;52.380;7.018;2022-09-01T02:38:17;13.90;99.90
39099;DHT22;24844;52.380;7.018;2022-09-01T02:40:46;13.90;99.90
39099;DHT22;24844;52.380;7.018;2022-09-01T02:43:13;13.80;99.90
39099;DHT22;24844;52.380;7.018;2022-09-01T02:45:40;13.80;99.90
39099;DHT22;24844;52.380;7.018;2022-09-01T02:48:08;13.80;99.90
39099;DHT22;24844;52.380;7.018;2022-09-01T02:50:36;13.70;99.90
39099;DHT22;24844;52.380;7.018;2022-09-01T02:53:02;13.70;99.90
39099;DHT22;24844;52.380;7.018;2022-09-01T02:55:40;13.70;99.90
39099;DHT22;24844;52.380;7.018;2022-09-01T02:58:06;13.70;99.90
39099;DHT22;24844;52.380;7.018;2022-09-01T03:00:41;13.60;99.90
39099;DHT22;24844;52.380;7.018;2022-09-01T03:03:08;13.50;99.90
39099;DHT22;24844;52.380;7.018;2022-09-01T03:05:34;13.50;99.90
39099;DHT22;24844;52.380;7.018;2022-09-01T03:08:06;13.50;99.90
39099;DHT22;24844;52.380;7.018;2022-09-01T03:10:37;13.40;99.90
39099;DHT22;24844;52.380;7.018;2022-09-01T03:13:10;13.30;99.90
39099;DHT22;24844;52.380;7.018;2022-09-01T03:15:37;13.30;99.90
39099;DHT22;24844;52.380;7.018;2022-09-01T03:18:04;13.30;99.90
39099;DHT22;24844;52.380;7.018;2022-09-01T03:20:32;13.30;99.90
39099;DHT22;24844;52.380;7.018;2022-09-01T03:22:59;13.30;99.90
39099;DHT22;24844;52.380;7.018;2022-09-01T03:25:25;13.20;99.90
39099;DHT22;24844;52.380;7.018;2022-09-01T03:27:53;13.20;99.90
39099;DHT22;24844;52.380;7.018;2022-09-01T03:30:19;13.20;99.90
39099;DHT22;24844;52.380;7.018;2022-09-01T03:32:45;13.20;99.90
39099;DHT22;24844;52.380;7.018;2022-09-01T03:35:12;13.10;99.90
39099;DHT22;24844;52.380;7.018;2022-09-01T03:37:38;13.10;99.90
39099;DHT22;24844;52.380;7.018;2022-09-01T03:40:05;13.20;99.90
39099;DHT22;24844;52.380;7.018;2022-09-01T03:42:33;13.20;99.90
39099;DHT22;24844;52.380;7.018;2022-09-01T03:45:00;13.20;99.90
39099;DHT22;24844;52.380;7.018;2022-09-01T03:47:31;13.10;99.90
39099;DHT22;24844;52.380;7.018;2022-09-01T03:49:58;13.10;99.90
39099;DHT22;24844;52.380;7.018;2022-09-01T03:52:24;13.10;99.90
39099;DHT22;24844;52.380;7.018;2022-09-01T03:54:54;13.10;99.90
39099;DHT22;24844;52.380;7.018;2022-09-01T03:57:20;13.00;99.90
39099;DHT22;24844;52.380;7.018;2022-09-01T03:59:47;13.00;99.90
39099;DHT22;24844;52.380;7.018;2022-09-01T04:02:13;13.00;99.90
39099;DHT22;24844;52.380;7.018;2022-09-01T04:04:39;13.00;99.90
39099;DHT22;24844;52.380;7.018;2022-09-01T04:07:04;13.00;99.90
39099;DHT22;24844;52.380;7.018;2022-09-01T04:09:32;12.90;99.90
39099;DHT22;24844;52.380;7.018;2022-09-01T04:11:59;12.80;99.90
39099;DHT22;24844;52.380;7.018;2022-09-01T04:14:24;12.80;99.90
39099;DHT22;24844;52.380;7.018;2022-09-01T04:16:51;12.80;99.90
39099;DHT22;24844;52.380;7.018;2022-09-01T04:19:36;12.70;99.90
39099;DHT22;24844;52.380;7.018;2022-09-01T04:22:04;12.70;99.90
39099;DHT22;24844;52.380;7.018;2022-09-01T04:24:31;12.60;99.90
39099;DHT22;24844;52.380;7.018;2022-09-01T04:27:00;12.60;99.90
39099;DHT22;24844;52.380;7.018;2022-09-01T04:29:27;12.60;99.90
39099;DHT22;24844;52.380;7.018;2022-09-01T04:34:21;12.60;99.90
39099;DHT22;24844;52.380;7.018;2022-09-01T04:36:47;12.60;99.90
39099;DHT22;24844;52.380;7.018;2022-09-01T04:39:13;12.70;99.90
39099;DHT22;24844;52.380;7.018;2022-09-01T04:41:43;12.70;99.90
39099;DHT22;24844;52.380;7.018;2022-09-01T04:44:14;12.70;99.90
39099;DHT22;24844;52.380;7.018;2022-09-01T04:46:42;12.60;99.90
39099;DHT22;24844;52.380;7.018;2022-09-01T04:49:11;12.60;99.90
39099;DHT22;24844;52.380;7.018;2022-09-01T04:51:42;12.60;99.90
39099;DHT22;24844;52.380;7.018;2022-09-01T04:54:08;12.60;99.90
39099;DHT22;24844;52.380;7.018;2022-09-01T04:56:37;12.60;99.90
39099;DHT22;24844;52.380;7.018;2022-09-01T04:59:03;12.60;99.90
39099;DHT22;24844;52.380;7.018;2022-09-01T05:01:32;12.60;99.90
39099;DHT22;24844;52.380;7.018;2022-09-01T05:04:11;12.70;99.90
39099;DHT22;24844;52.380;7.018;2022-09-01T05:06:43;12.80;99.90
39099;DHT22;24844;52.380;7.018;2022-09-01T05:09:10;12.90;99.90
39099;DHT22;24844;52.380;7.018;2022-09-01T05:11:37;12.80;99.90
39099;DHT22;24844;52.380;7.018;2022-09-01T05:14:04;12.70;99.90
39099;DHT22;24844;52.380;7.018;2022-09-01T05:16:32;12.70;99.90
39099;DHT22;24844;52.380;7.018;2022-09-01T05:18:58;12.80;99.90
39099;DHT22;24844;52.380;7.018;2022-09-01T05:21:26;12.80;99.90
39099;DHT22;24844;52.380;7.018;2022-09-01T05:23:55;13.00;99.90
39099;DHT22;24844;52.380;7.018;2022-09-01T05:26:25;12.90;99.90
39099;DHT22;24844;52.380;7.018;2022-09-01T05:28:53;12.90;99.90
39099;DHT22;24844;52.380;7.018;2022-09-01T05:31:20;13.00;99.90
39099;DHT22;24844;52.380;7.018;2022-09-01T05:33:47;13.00;99.90
39099;DHT22;24844;52.380;7.018;2022-09-01T05:36:20;13.10;99.90
39099;DHT22;24844;52.380;7.018;2022-09-01T05:38:47;13.20;99.90
39099;DHT22;24844;52.380;7.018;2022-09-01T05:41:15;13.30;99.90
39099;DHT22;24844;52.380;7.018;2022-09-01T05:43:44;13.20;99.90
39099;DHT22;24844;52.380;7.018;2022-09-01T05:46:14;13.30;99.90
39099;DHT22;24844;52.380;7.018;2022-09-01T05:48:41;13.30;99.90
39099;DHT22;24844;52.380;7.018;2022-09-01T05:51:10;13.40;99.90
39099;DHT22;24844;52.380;7.018;2022-09-01T05:53:39;13.40;99.90
39099;DHT22;24844;52.380;7.018;2022-09-01T05:56:06;13.40;99.90
39099;DHT22;24844;52.380;7.018;2022-09-01T05:58:33;13.40;99.90
39099;DHT22;24844;52.380;7.018;2022-09-01T06:01:00;13.50;99.90
39099;DHT22;24844;52.380;7.018;2022-09-01T06:03:26;13.60;99.90
39099;DHT22;24844;52.380;7.018;2022-09-01T06:05:53;13.70;99.90
39099;DHT22;24844;52.380;7.018;2022-09-01T06:08:22;13.80;99.90
39099;DHT22;24844;52.380;7.018;2022-09-01T06:10:49;13.80;99.90
39099;DHT22;24844;52.380;7.018;2022-09-01T06:13:17;13.80;99.90
39099;DHT22;24844;52.380;7.018;2022-09-01T06:15:50;13.90;99.90
39099;DHT22;24844;52.380;7.018;2022-09-01T06:18:18;14.00;99.90
39099;DHT22;24844;52.380;7.018;2022-09-01T06:20:46;14.20;99.90
39099;DHT22;24844;52.380;7.018;2022-09-01T06:23:14;14.20;99.90
39099;DHT22;24844;52.380;7.018;2022-09-01T06:25:43;14.40;99.90
39099;DHT22;24844;52.380;7.018;2022-09-01T06:28:15;14.40;99.90
39099;DHT22;24844;52.380;7.018;2022-09-01T06:30:42;14.30;99.90
39099;DHT22;24844;52.380;7.018;2022-09-01T06:33:11;14.40;99.90
39099;DHT22;24844;52.380;7.018;2022-09-01T06:35:39;14.60;99.90
39099;DHT22;24844;52.380;7.018;2022-09-01T06:38:08;14.90;99.90
39099;DHT22;24844;52.380;7.018;2022-09-01T06:40:34;15.00;99.90
39099;DHT22;24844;52.380;7.018;2022-09-01T06:43:00;15.00;99.90
39099;DHT22;24844;52.380;7.018;2022-09-01T06:45:33;15.10;99.90
39099;DHT22;24844;52.380;7.018;2022-09-01T06:47:59;15.20;99.90
39099;DHT22;24844;52.380;7.018;2022-09-01T06:50:25;15.30;99.90
39099;DHT22;24844;52.380;7.018;2022-09-01T06:52:52;15.50;99.90
39099;DHT22;24844;52.380;7.018;2022-09-01T06:55:26;15.50;99.90
39099;DHT22;24844;52.380;7.018;2022-09-01T06:57:58;15.60;99.90
39099;DHT22;24844;52.380;7.018;2022-09-01T07:00:24;15.50;99.90
39099;DHT22;24844;52.380;7.018;2022-09-01T07:02:55;15.70;99.90
39099;DHT22;24844;52.380;7.018;2022-09-01T07:05:22;15.80;99.90
39099;DHT22;24844;52.380;7.018;2022-09-01T07:07:50;15.90;99.90
39099;DHT22;24844;52.380;7.018;2022-09-01T07:10:17;16.30;99.90
39099;DHT22;24844;52.380;7.018;2022-09-01T07:12:51;16.30;99.90
39099;DHT22;24844;52.380;7.018;2022-09-01T07:15:17;16.30;99.90
39099;DHT22;24844;52.380;7.018;2022-09-01T07:18:02;16.30;99.90
39099;DHT22;24844;52.380;7.018;2022-09-01T07:20:28;16.50;99.90
39099;DHT22;24844;52.380;7.018;2022-09-01T07:22:55;16.70;99.90
39099;DHT22;24844;52.380;7.018;2022-09-01T07:25:21;16.80;99.90
39099;DHT22;24844;52.380;7.018;2022-09-01T07:27:47;17.10;99.90
39099;DHT22;24844;52.380;7.018;2022-09-01T07:30:17;17.20;99.90
39099;DHT22;24844;52.380;7.018;2022-09-01T07:32:44;17.30;99.90
39099;DHT22;24844;52.380;7.018;2022-09-01T07:35:12;17.70;99.90
39099;DHT22;24844;52.380;7.018;2022-09-01T07:37:37;17.60;99.90
39099;DHT22;24844;52.380;7.018;2022-09-01T07:40:05;18.00;99.90
39099;DHT22;24844;52.380;7.018;2022-09-01T07:42:32;18.30;99.90
39099;DHT22;24844;52.380;7.018;2022-09-01T07:44:58;18.60;99.90
39099;DHT22;24844;52.380;7.018;2022-09-01T07:47:24;19.10;99.90
39099;DHT22;24844;52.380;7.018;2022-09-01T07:49:49;19.90;99.90
39099;DHT22;24844;52.380;7.018;2022-09-01T07:52:15;21.10;99.90
39099;DHT22;24844;52.380;7.018;2022-09-01T07:54:42;22.10;98.50
39099;DHT22;24844;52.380;7.018;2022-09-01T07:57:07;23.30;97.50
39099;DHT22;24844;52.380;7.018;2022-09-01T07:59:33;24.40;97.20
39099;DHT22;24844;52.380;7.018;2022-09-01T08:01:59;25.50;96.30
39099;DHT22;24844;52.380;7.018;2022-09-01T08:04:29;26.30;98.90
39099;DHT22;24844;52.380;7.018;2022-09-01T08:06:56;26.90;98.00
39099;DHT22;24844;52.380;7.018;2022-09-01T08:09:22;27.60;96.40
39099;DHT22;24844;52.380;7.018;2022-09-01T08:11:47;28.70;93.40
39099;DHT22;24844;52.380;7.018;2022-09-01T08:14:14;29.10;93.10
39099;DHT22;24844;52.380;7.018;2022-09-01T08:16:39;28.70;91.30
39099;DHT22;24844;52.380;7.018;2022-09-01T08:19:05;28.80;90.30
39099;DHT22;24844;52.380;7.018;2022-09-01T08:21:31;29.90;90.80
39099;DHT22;24844;52.380;7.018;2022-09-01T08:23:56;30.80;90.80
39099;DHT22;24844;52.380;7.018;2022-09-01T08:26:24;31.20;87.10
39099;DHT22;24844;52.380;7.018;2022-09-01T08:28:51;31.60;87.60
39099;DHT22;24844;52.380;7.018;2022-09-01T08:31:18;32.20;87.60
39099;DHT22;24844;52.380;7.018;2022-09-01T08:33:46;32.90;92.50
39099;DHT22;24844;52.380;7.018;2022-09-01T08:36:13;32.80;91.80
39099;DHT22;24844;52.380;7.018;2022-09-01T08:38:39;33.10;90.70
39099;DHT22;24844;52.380;7.018;2022-09-01T08:41:25;32.90;89.90
39099;DHT22;24844;52.380;7.018;2022-09-01T08:46:41;32.50;86.10
39099;DHT22;24844;52.380;7.018;2022-09-01T08:49:09;32.90;84.40
39099;DHT22;24844;52.380;7.018;2022-09-01T08:54:33;32.80;83.90
39099;DHT22;24844;52.380;7.018;2022-09-01T08:57:05;32.50;82.50
39099;DHT22;24844;52.380;7.018;2022-09-01T08:59:32;32.60;82.00
39099;DHT22;24844;52.380;7.018;2022-09-01T09:05:03;32.20;80.60
39099;DHT22;24844;52.380;7.018;2022-09-01T09:07:51;31.60;81.00
39099;DHT22;24844;52.380;7.018;2022-09-01T09:10:29;31.70;79.90
39099;DHT22;24844;52.380;7.018;2022-09-01T09:15:49;30.90;79.70
39099;DHT22;24844;52.380;7.018;2022-09-01T09:18:36;31.50;80.20
39099;DHT22;24844;52.380;7.018;2022-09-01T09:21:13;30.10;80.40
39099;DHT22;24844;52.380;7.018;2022-09-01T09:23:44;28.60;82.50
39099;DHT22;24844;52.380;7.018;2022-09-01T09:26:10;28.80;82.90
39099;DHT22;24844;52.380;7.018;2022-09-01T09:28:36;29.50;82.60
39099;DHT22;24844;52.380;7.018;2022-09-01T09:33:50;30.80;81.20
39099;DHT22;24844;52.380;7.018;2022-09-01T09:36:36;30.30;80.90
39099;DHT22;24844;52.380;7.018;2022-09-01T09:39:16;31.00;79.10
39099;DHT22;24844;52.380;7.018;2022-09-01T09:41:42;31.60;78.10
39099;DHT22;24844;52.380;7.018;2022-09-01T09:44:30;31.10;79.70
39099;DHT22;24844;52.380;7.018;2022-09-01T09:46:57;32.00;77.60
39099;DHT22;24844;52.380;7.018;2022-09-01T09:49:28;30.40;79.20
39099;DHT22;24844;52.380;7.018;2022-09-01T09:54:35;30.80;78.50
39099;DHT22;24844;52.380;7.018;2022-09-01T09:59:55;29.30;79.90
39099;DHT22;24844;52.380;7.018;2022-09-01T10:02:26;31.10;77.70
39099;DHT22;24844;52.380;7.018;2022-09-01T10:04:53;29.50;78.00
39099;DHT22;24844;52.380;7.018;2022-09-01T10:07:24;28.10;80.20
39099;DHT22;24844;52.380;7.018;2022-09-01T10:09:52;27.50;81.80
39099;DHT22;24844;52.380;7.018;2022-09-01T10:12:21;27.30;86.10
39099;DHT22;24844;52.380;7.018;2022-09-01T10:14:52;28.60;84.20
39099;DHT22;24844;52.380;7.018;2022-09-01T10:17:23;28.70;84.10
39099;DHT22;24844;52.380;7.018;2022-09-01T10:19:56;27.70;85.00
39099;DHT22;24844;52.380;7.018;2022-09-01T10:22:23;28.00;84.50
39099;DHT22;24844;52.380;7.018;2022-09-01T10:24:52;26.50;73.70
39099;DHT22;24844;52.380;7.018;2022-09-01T10:27:23;26.50;74.00
39099;DHT22;24844;52.380;7.018;2022-09-01T10:33:04;27.50;72.60
39099;DHT22;24844;52.380;7.018;2022-09-01T10:35:34;26.60;74.30
39099;DHT22;24844;52.380;7.018;2022-09-01T10:38:07;26.20;75.20
39099;DHT22;24844;52.380;7.018;2022-09-01T10:40:36;28.10;71.20
39099;DHT22;24844;52.380;7.018;2022-09-01T10:45:49;29.60;69.40
39099;DHT22;24844;52.380;7.018;2022-09-01T10:48:21;30.90;68.70
39099;DHT22;24844;52.380;7.018;2022-09-01T10:50:53;32.50;68.10
39099;DHT22;24844;52.380;7.018;2022-09-01T10:58:59;31.80;65.30
39099;DHT22;24844;52.380;7.018;2022-09-01T11:04:07;31.70;65.30
39099;DHT22;24844;52.380;7.018;2022-09-01T11:09:23;32.10;62.10
39099;DHT22;24844;52.380;7.018;2022-09-01T11:14:49;27.90;66.20
39099;DHT22;24844;52.380;7.018;2022-09-01T11:17:30;26.00;69.60
39099;DHT22;24844;52.380;7.018;2022-09-01T11:20:06;25.80;70.00
39099;DHT22;24844;52.380;7.018;2022-09-01T11:22:42;26.40;69.10
39099;DHT22;24844;52.380;7.018;2022-09-01T11:25:13;25.20;72.10
39099;DHT22;24844;52.380;7.018;2022-09-01T11:38:55;25.60;73.20
39099;DHT22;24844;52.380;7.018;2022-09-01T11:41:31;25.40;72.60
39099;DHT22;24844;52.380;7.018;2022-09-01T11:44:00;25.10;73.80
39099;DHT22;24844;52.380;7.018;2022-09-01T11:46:32;25.50;73.70
39099;DHT22;24844;52.380;7.018;2022-09-01T11:49:04;25.70;72.70
39099;DHT22;24844;52.380;7.018;2022-09-01T11:51:57;25.70;72.60
39099;DHT22;24844;52.380;7.018;2022-09-01T11:54:24;25.10;72.60
39099;DHT22;24844;52.380;7.018;2022-09-01T11:56:50;25.20;73.30
39099;DHT22;24844;52.380;7.018;2022-09-01T11:59:33;24.80;74.60
39099;DHT22;24844;52.380;7.018;2022-09-01T12:02:00;24.60;75.20
39099;DHT22;24844;52.380;7.018;2022-09-01T12:04:32;24.40;75.60
39099;DHT22;24844;52.380;7.018;2022-09-01T12:07:06;24.00;75.90
39099;DHT22;24844;52.380;7.018;2022-09-01T12:09:37;24.10;76.20
39099;DHT22;24844;52.380;7.018;2022-09-01T12:12:05;24.30;76.00
39099;DHT22;24844;52.380;7.018;2022-09-01T12:14:32;24.80;75.50
39099;DHT22;24844;52.380;7.018;2022-09-01T12:17:04;25.10;75.00
39099;DHT22;24844;52.380;7.018;2022-09-01T12:19:33;24.70;75.20
39099;DHT22;24844;52.380;7.018;2022-09-01T12:22:02;25.50;72.20
39099;DHT22;24844;52.380;7.018;2022-09-01T12:24:33;25.70;72.50
39099;DHT22;24844;52.380;7.018;2022-09-01T12:27:00;25.40;72.90
39099;DHT22;24844;52.380;7.018;2022-09-01T12:29:26;25.40;72.80
39099;DHT22;24844;52.380;7.018;2022-09-01T12:31:53;25.20;73.70
39099;DHT22;24844;52.380;7.018;2022-09-01T12:34:27;25.10;74.20
39099;DHT22;24844;52.380;7.018;2022-09-01T12:39:33;25.20;74.00
39099;DHT22;24844;52.380;7.018;2022-09-01T12:42:08;25.10;73.70
39099;DHT22;24844;52.380;7.018;2022-09-01T12:47:05;24.50;74.40
39099;DHT22;24844;52.380;7.018;2022-09-01T12:52:22;25.10;73.20
39099;DHT22;24844;52.380;7.018;2022-09-01T12:54:53;25.60;72.80
39099;DHT22;24844;52.380;7.018;2022-09-01T12:57:37;24.90;74.00
39099;DHT22;24844;52.380;7.018;2022-09-01T13:00:23;24.50;74.00
39099;DHT22;24844;52.380;7.018;2022-09-01T13:03:02;24.40;74.00
39099;DHT22;24844;52.380;7.018;2022-09-01T13:05:34;24.30;74.00
39099;DHT22;24844;52.380;7.018;2022-09-01T13:08:03;24.30;73.50
39099;DHT22;24844;52.380;7.018;2022-09-01T13:10:32;24.50;72.90
39099;DHT22;24844;52.380;7.018;2022-09-01T13:12:59;24.80;72.10
39099;DHT22;24844;52.380;7.018;2022-09-01T13:15:26;24.50;72.10
39099;DHT22;24844;52.380;7.018;2022-09-01T13:17:52;24.40;72.40
39099;DHT22;24844;52.380;7.018;2022-09-01T13:20:18;24.30;73.20
39099;DHT22;24844;52.380;7.018;2022-09-01T13:22:43;24.50;73.50
39099;DHT22;24844;52.380;7.018;2022-09-01T13:25:11;25.10;73.50
39099;DHT22;24844;52.380;7.018;2022-09-01T13:27:38;25.50;73.10
39099;DHT22;24844;52.380;7.018;2022-09-01T13:30:07;25.70;72.70
39099;DHT22;24844;52.380;7.018;2022-09-01T13:32:33;25.70;72.90
39099;DHT22;24844;52.380;7.018;2022-09-01T13:34:58;25.50;72.40
39099;DHT22;24844;52.380;7.018;2022-09-01T13:37:24;25.50;72.10
39099;DHT22;24844;52.380;7.018;2022-09-01T13:39:50;25.60;72.60
39099;DHT22;24844;52.380;7.018;2022-09-01T13:42:16;25.60;73.20
39099;DHT22;24844;52.380;7.018;2022-09-01T13:44:42;25.60;72.70
39099;DHT22;24844;52.380;7.018;2022-09-01T13:47:07;24.90;72.90
39099;DHT22;24844;52.380;7.018;2022-09-01T13:49:33;25.40;73.00
39099;DHT22;24844;52.380;7.018;2022-09-01T13:51:58;25.10;72.60
39099;DHT22;24844;52.380;7.018;2022-09-01T13:54:24;25.00;72.70
39099;DHT22;24844;52.380;7.018;2022-09-01T13:56:49;25.20;71.80
39099;DHT22;24844;52.380;7.018;2022-09-01T13:59:15;25.50;71.60
39099;DHT22;24844;52.380;7.018;2022-09-01T14:01:41;25.50;71.70
39099;DHT22;24844;52.380;7.018;2022-09-01T14:04:07;25.60;70.90
39099;DHT22;24844;52.380;7.018;2022-09-01T14:06:39;25.50;71.40
39099;DHT22;24844;52.380;7.018;2022-09-01T14:09:04;25.40;71.80
39099;DHT22;24844;52.380;7.018;2022-09-01T14:11:30;25.60;72.10
39099;DHT22;24844;52.380;7.018;2022-09-01T14:13:56;25.70;70.80
39099;DHT22;24844;52.380;7.018;2022-09-01T14:16:22;25.00;71.50
39099;DHT22;24844;52.380;7.018;2022-09-01T14:18:47;24.40;72.90
39099;DHT22;24844;52.380;7.018;2022-09-01T14:21:14;24.20;73.50
39099;DHT22;24844;52.380;7.018;2022-09-01T14:23:41;24.60;73.60
39099;DHT22;24844;52.380;7.018;2022-09-01T14:26:09;25.00;73.30
39099;DHT22;24844;52.380;7.018;2022-09-01T14:28:36;24.80;73.00
39099;DHT22;24844;52.380;7.018;2022-09-01T14:31:07;24.70;73.50
39099;DHT22;24844;52.380;7.018;2022-09-01T14:33:33;24.50;73.40
39099;DHT22;24844;52.380;7.018;2022-09-01T14:35:59;24.90;73.20
39099;DHT22;24844;52.380;7.018;2022-09-01T14:38:25;25.00;72.40
39099;DHT22;24844;52.380;7.018;2022-09-01T14:40:50;24.80;72.50
39099;DHT22;24844;52.380;7.018;2022-09-01T14:43:17;24.80;72.40
39099;DHT22;24844;52.380;7.018;2022-09-01T14:45:43;24.90;73.10
39099;DHT22;24844;52.380;7.018;2022-09-01T14:48:11;25.50;71.60
39099;DHT22;24844;52.380;7.018;2022-09-01T14:50:41;25.50;71.30
39099;DHT22;24844;52.380;7.018;2022-09-01T14:53:08;25.50;71.50
39099;DHT22;24844;52.380;7.018;2022-09-01T14:55:33;25.50;71.40
39099;DHT22;24844;52.380;7.018;2022-09-01T14:57:59;25.70;71.90
39099;DHT22;24844;52.380;7.018;2022-09-01T15:00:25;25.60;71.60
39099;DHT22;24844;52.380;7.018;2022-09-01T15:02:52;24.60;73.30
39099;DHT22;24844;52.380;7.018;2022-09-01T15:05:19;24.70;73.60
39099;DHT22;24844;52.380;7.018;2022-09-01T15:07:46;24.90;73.60
39099;DHT22;24844;52.380;7.018;2022-09-01T15:10:14;24.90;73.10
39099;DHT22;24844;52.380;7.018;2022-09-01T15:12:40;24.50;73.40
39099;DHT22;24844;52.380;7.018;2022-09-01T15:15:07;24.70;73.60
39099;DHT22;24844;52.380;7.018;2022-09-01T15:17:33;25.00;73.20
39099;DHT22;24844;52.380;7.018;2022-09-01T15:19:59;24.70;73.70
39099;DHT22;24844;52.380;7.018;2022-09-01T15:22:45;25.20;72.90
39099;DHT22;24844;52.380;7.018;2022-09-01T15:25:12;25.50;72.50
39099;DHT22;24844;52.380;7.018;2022-09-01T15:27:38;25.50;72.60
39099;DHT22;24844;52.380;7.018;2022-09-01T15:30:03;25.40;73.00
39099;DHT22;24844;52.380;7.018;2022-09-01T15:32:46;25.10;72.80
39099;DHT22;24844;52.380;7.018;2022-09-01T15:35:12;25.20;72.70
39099;DHT22;24844;52.380;7.018;2022-09-01T15:37:38;25.30;71.80
39099;DHT22;24844;52.380;7.018;2022-09-01T15:40:05;25.40;71.50
39099;DHT22;24844;52.380;7.018;2022-09-01T15:42:33;24.90;72.20
39099;DHT22;24844;52.380;7.018;2022-09-01T15:45:01;25.30;71.70
39099;DHT22;24844;52.380;7.018;2022-09-01T15:47:27;25.20;71.60
39099;DHT22;24844;52.380;7.018;2022-09-01T15:49:53;25.20;71.90
39099;DHT22;24844;52.380;7.018;2022-09-01T15:52:19;25.00;72.30
39099;DHT22;24844;52.380;7.018;2022-09-01T15:54:45;24.50;72.50
39099;DHT22;24844;52.380;7.018;2022-09-01T15:57:10;24.50;72.70
39099;DHT22;24844;52.380;7.018;2022-09-01T15:59:36;24.70;72.00
39099;DHT22;24844;52.380;7.018;2022-09-01T16:02:04;24.70;72.70
39099;DHT22;24844;52.380;7.018;2022-09-01T16:04:31;25.00;72.00
39099;DHT22;24844;52.380;7.018;2022-09-01T16:06:57;24.50;72.60
39099;DHT22;24844;52.380;7.018;2022-09-01T16:09:22;24.80;72.00
39099;DHT22;24844;52.380;7.018;2022-09-01T16:11:51;24.30;73.50
39099;DHT22;24844;52.380;7.018;2022-09-01T16:14:16;24.40;72.90
39099;DHT22;24844;52.380;7.018;2022-09-01T16:17:16;24.70;72.40
39099;DHT22;24844;52.380;7.018;2022-09-01T16:20:00;24.90;71.60
39099;DHT22;24844;52.380;7.018;2022-09-01T16:22:30;24.90;71.90
39099;DHT22;24844;52.380;7.018;2022-09-01T16:24:59;24.70;72.00
39099;DHT22;24844;52.380;7.018;2022-09-01T16:27:38;24.80;71.90
39099;DHT22;24844;52.380;7.018;2022-09-01T16:30:07;24.80;71.60
39099;DHT22;24844;52.380;7.018;2022-09-01T16:32:34;24.80;71.40
39099;DHT22;24844;52.380;7.018;2022-09-01T16:35:00;24.50;71.50
39099;DHT22;24844;52.380;7.018;2022-09-01T16:43:05;24.90;70.40
39099;DHT22;24844;52.380;7.018;2022-09-01T16:45:45;24.10;71.60
39099;DHT22;24844;52.380;7.018;2022-09-01T16:53:46;24.40;71.00
39099;DHT22;24844;52.380;7.018;2022-09-01T16:56:33;24.10;71.50
39099;DHT22;24844;52.380;7.018;2022-09-01T17:02:18;24.20;71.10